createdAt,value
2017-10-16T00:01:06.389Z,8.9
2017-10-16T00:02:13.851Z,8.9
2017-10-16T00:03:20.970Z,8.9
2017-10-16T00:04:28.090Z,8.9
2017-10-16T00:05:35.544Z,8.9
2017-10-16T00:06:43.003Z,9
2017-10-16T00:07:50.127Z,9
2017-10-16T00:08:57.249Z,9
2017-10-16T00:10:04.709Z,9
2017-10-16T00:11:12.169Z,9
2017-10-16T00:12:19.634Z,9
2017-10-16T00:13:27.089Z,9
2017-10-16T00:14:34.549Z,9
2017-10-16T00:15:42.008Z,9
2017-10-16T00:16:49.470Z,9
2017-10-16T00:17:56.926Z,8.9
2017-10-16T00:19:04.392Z,8.9
2017-10-16T00:20:11.864Z,8.8
2017-10-16T00:21:19.325Z,8.8
2017-10-16T00:22:26.787Z,8.8
2017-10-16T00:23:34.241Z,8.8
2017-10-16T00:24:41.464Z,8.8
2017-10-16T00:25:48.920Z,8.8
2017-10-16T00:26:56.402Z,8.8
2017-10-16T00:28:03.516Z,8.8
2017-10-16T00:29:10.978Z,8.8
2017-10-16T00:30:18.190Z,8.8
2017-10-16T00:31:25.645Z,8.7
2017-10-16T00:32:33.100Z,8.7
2017-10-16T00:33:40.560Z,8.7
2017-10-16T00:34:48.021Z,8.7
2017-10-16T00:35:55.483Z,8.7
2017-10-16T00:37:02.940Z,8.6
2017-10-16T00:38:10.405Z,8.6
2017-10-16T00:39:17.870Z,8.6
2017-10-16T00:40:24.645Z,8.6
2017-10-16T00:41:32.105Z,8.6
2017-10-16T00:42:39.568Z,8.6
2017-10-16T00:43:47.052Z,8.5
2017-10-16T00:44:54.509Z,8.6
2017-10-16T00:46:02.216Z,8.5
2017-10-16T00:47:09.677Z,8.5
2017-10-16T00:48:16.788Z,8.5
2017-10-16T00:49:24.251Z,8.5
2017-10-16T00:50:31.716Z,8.5
2017-10-16T00:51:53.754Z,8.5
2017-10-16T00:53:01.210Z,8.5
2017-10-16T00:54:08.678Z,8.5
2017-10-16T00:55:16.132Z,8.5
2017-10-16T00:56:23.248Z,8.4
2017-10-16T00:57:30.361Z,8.4
2017-10-16T00:58:37.820Z,8.4
2017-10-16T00:59:45.280Z,8.4
2017-10-16T01:00:52.744Z,8.3
2017-10-16T01:02:00.207Z,8.4
2017-10-16T01:03:07.663Z,8.4
2017-10-16T01:04:14.777Z,8.4
2017-10-16T01:05:22.234Z,8.4
2017-10-16T01:06:29.702Z,8.4
2017-10-16T01:07:37.161Z,8.3
2017-10-16T01:08:44.621Z,8.3
2017-10-16T01:09:52.079Z,8.4
2017-10-16T01:10:59.203Z,8.3
2017-10-16T01:12:06.660Z,8.4
2017-10-16T01:13:14.123Z,8.4
2017-10-16T01:14:21.588Z,8.4
2017-10-16T01:15:29.043Z,8.4
2017-10-16T01:16:36.526Z,8.3
2017-10-16T01:17:43.983Z,8.3
2017-10-16T01:18:51.442Z,8.3
2017-10-16T01:19:59.154Z,8.3
2017-10-16T01:21:06.618Z,8.3
2017-10-16T01:22:14.077Z,8.3
2017-10-16T01:23:21.546Z,8.3
2017-10-16T01:24:29.001Z,8.3
2017-10-16T01:25:36.117Z,8.2
2017-10-16T01:26:43.574Z,8.2
2017-10-16T01:27:51.034Z,8.2
2017-10-16T01:28:58.493Z,8.2
2017-10-16T01:30:05.959Z,8.2
2017-10-16T01:31:13.416Z,8.1
2017-10-16T01:32:20.529Z,8.1
2017-10-16T01:33:27.991Z,8.1
2017-10-16T01:34:35.448Z,8.1
2017-10-16T01:35:42.911Z,8.1
2017-10-16T01:36:50.026Z,8.1
2017-10-16T01:37:57.487Z,8
2017-10-16T01:39:04.950Z,8.1
2017-10-16T01:40:12.409Z,8.1
2017-10-16T01:41:19.867Z,8.1
2017-10-16T01:42:27.326Z,8
2017-10-16T01:43:34.790Z,8
2017-10-16T01:44:42.260Z,8
2017-10-16T01:45:49.374Z,8
2017-10-16T01:46:56.831Z,7.9
2017-10-16T01:48:04.286Z,7.9
2017-10-16T01:49:11.749Z,7.9
2017-10-16T01:50:19.207Z,7.9
2017-10-16T01:51:26.322Z,8
2017-10-16T01:52:33.794Z,7.9
2017-10-16T01:53:41.254Z,7.9
2017-10-16T01:54:48.716Z,7.9
2017-10-16T01:55:56.176Z,7.9
2017-10-16T01:57:03.635Z,8
2017-10-16T01:58:11.097Z,7.9
2017-10-16T01:59:18.552Z,8
2017-10-16T02:00:26.017Z,8
2017-10-16T02:01:33.474Z,7.9
2017-10-16T02:02:41.153Z,7.9
2017-10-16T02:03:48.273Z,7.9
2017-10-16T02:04:55.729Z,7.8
2017-10-16T02:06:03.187Z,7.8
2017-10-16T02:07:10.648Z,7.9
2017-10-16T02:08:18.107Z,7.8
2017-10-16T02:09:25.563Z,7.8
2017-10-16T02:10:32.681Z,7.8
2017-10-16T02:11:40.135Z,7.8
2017-10-16T02:12:47.592Z,7.8
2017-10-16T02:13:54.711Z,7.8
2017-10-16T02:15:02.170Z,7.7
2017-10-16T02:16:09.624Z,7.8
2017-10-16T02:17:17.082Z,7.8
2017-10-16T02:18:24.545Z,7.7
2017-10-16T02:19:32.250Z,7.7
2017-10-16T02:20:39.706Z,7.7
2017-10-16T02:21:47.161Z,7.7
2017-10-16T02:22:54.617Z,7.7
2017-10-16T02:24:02.090Z,7.7
2017-10-16T02:25:09.542Z,7.7
2017-10-16T02:26:17.005Z,7.7
2017-10-16T02:27:24.470Z,7.7
2017-10-16T02:28:31.922Z,7.7
2017-10-16T02:29:39.376Z,7.7
2017-10-16T02:30:47.087Z,7.7
2017-10-16T02:31:53.862Z,7.7
2017-10-16T02:33:01.322Z,7.6
2017-10-16T02:34:08.785Z,7.6
2017-10-16T02:35:15.907Z,7.6
2017-10-16T02:36:23.357Z,7.6
2017-10-16T02:37:30.817Z,7.6
2017-10-16T02:38:37.932Z,7.7
2017-10-16T02:39:45.411Z,7.6
2017-10-16T02:40:52.864Z,7.7
2017-10-16T02:42:00.623Z,7.7
2017-10-16T02:43:08.082Z,7.7
2017-10-16T02:44:15.542Z,7.6
2017-10-16T02:45:23.003Z,7.6
2017-10-16T02:46:30.474Z,7.6
2017-10-16T02:47:37.920Z,7.6
2017-10-16T02:48:45.375Z,7.7
2017-10-16T02:49:52.835Z,7.7
2017-10-16T02:51:00.293Z,7.6
2017-10-16T02:52:07.749Z,7.6
2017-10-16T02:53:15.208Z,7.6
2017-10-16T02:54:22.663Z,7.6
2017-10-16T02:55:30.120Z,7.6
2017-10-16T02:56:37.577Z,7.6
2017-10-16T02:57:45.035Z,7.6
2017-10-16T02:58:52.492Z,7.6
2017-10-16T02:59:59.949Z,7.6
2017-10-16T03:01:07.072Z,7.7
2017-10-16T03:02:14.529Z,7.6
2017-10-16T03:03:21.996Z,7.7
2017-10-16T03:04:29.454Z,7.7
2017-10-16T03:05:36.912Z,7.6
2017-10-16T03:06:44.392Z,7.6
2017-10-16T03:07:51.513Z,7.6
2017-10-16T03:08:58.634Z,7.6
2017-10-16T03:10:06.090Z,7.6
2017-10-16T03:11:13.550Z,7.7
2017-10-16T03:12:21.008Z,7.7
2017-10-16T03:13:28.465Z,7.7
2017-10-16T03:14:36.179Z,7.7
2017-10-16T03:15:43.642Z,7.7
2017-10-16T03:16:51.097Z,7.8
2017-10-16T03:17:58.554Z,7.7
2017-10-16T03:19:06.015Z,7.8
2017-10-16T03:20:13.477Z,7.8
2017-10-16T03:21:20.595Z,7.8
2017-10-16T03:22:28.051Z,7.8
2017-10-16T03:23:35.170Z,7.8
2017-10-16T03:24:42.625Z,7.8
2017-10-16T03:25:50.088Z,7.8
2017-10-16T03:26:57.543Z,7.9
2017-10-16T03:28:05.008Z,7.9
2017-10-16T03:29:12.464Z,7.9
2017-10-16T03:30:19.925Z,7.9
2017-10-16T03:31:27.384Z,7.9
2017-10-16T03:32:34.847Z,7.9
2017-10-16T03:33:42.303Z,7.9
2017-10-16T03:34:49.764Z,7.9
2017-10-16T03:35:57.219Z,7.9
2017-10-16T03:37:04.909Z,7.9
2017-10-16T03:38:12.354Z,7.9
2017-10-16T03:39:19.806Z,8
2017-10-16T03:40:26.922Z,8
2017-10-16T03:41:34.383Z,8
2017-10-16T03:42:41.839Z,8
2017-10-16T03:43:49.296Z,8
2017-10-16T03:44:56.755Z,8
2017-10-16T03:46:04.213Z,8
2017-10-16T03:47:11.673Z,8
2017-10-16T03:48:19.129Z,8
2017-10-16T03:49:26.589Z,8.1
2017-10-16T03:50:33.710Z,8.1
2017-10-16T03:51:41.165Z,8.1
2017-10-16T03:52:48.621Z,8.1
2017-10-16T03:53:56.080Z,8.2
2017-10-16T03:55:03.540Z,8.2
2017-10-16T03:56:11.001Z,8.2
2017-10-16T03:57:18.474Z,8.1
2017-10-16T03:58:25.929Z,8.1
2017-10-16T03:59:33.395Z,8.1
2017-10-16T04:00:40.507Z,8.2
2017-10-16T04:01:47.962Z,8.2
2017-10-16T04:02:55.421Z,8.2
2017-10-16T04:04:02.875Z,8.3
2017-10-16T04:05:10.338Z,8.3
2017-10-16T04:06:17.795Z,8.4
2017-10-16T04:07:25.271Z,8.4
2017-10-16T04:08:32.731Z,8.4
2017-10-16T04:09:39.851Z,8.4
2017-10-16T04:10:47.308Z,8.4
2017-10-16T04:11:54.771Z,8.3
2017-10-16T04:13:02.230Z,8.3
2017-10-16T04:14:09.683Z,8.3
2017-10-16T04:15:16.460Z,8.3
2017-10-16T04:16:23.580Z,8.3
2017-10-16T04:17:31.053Z,8.4
2017-10-16T04:18:38.503Z,8.3
2017-10-16T04:19:45.620Z,8.4
2017-10-16T04:20:53.076Z,8.4
2017-10-16T04:22:00.533Z,8.5
2017-10-16T04:23:07.996Z,8.5
2017-10-16T04:24:15.482Z,8.5
2017-10-16T04:25:22.937Z,8.5
2017-10-16T04:26:30.409Z,8.5
2017-10-16T04:27:37.870Z,8.6
2017-10-16T04:28:45.322Z,8.6
2017-10-16T04:29:52.778Z,8.6
2017-10-16T04:31:00.237Z,8.6
2017-10-16T04:32:07.695Z,8.6
2017-10-16T04:33:15.157Z,8.6
2017-10-16T04:34:22.614Z,8.6
2017-10-16T04:35:29.728Z,8.6
2017-10-16T04:36:36.500Z,8.6
2017-10-16T04:37:43.955Z,8.6
2017-10-16T04:38:51.666Z,8.6
2017-10-16T04:39:59.130Z,8.6
2017-10-16T04:41:06.245Z,8.6
2017-10-16T04:42:13.361Z,8.7
2017-10-16T04:43:20.818Z,8.7
2017-10-16T04:44:28.274Z,8.7
2017-10-16T04:45:35.733Z,8.7
2017-10-16T04:46:43.188Z,8.7
2017-10-16T04:47:50.647Z,8.7
2017-10-16T04:48:58.105Z,8.7
2017-10-16T04:50:05.218Z,8.8
2017-10-16T04:51:12.676Z,8.8
2017-10-16T04:52:20.138Z,8.9
2017-10-16T04:53:27.599Z,8.9
2017-10-16T04:54:35.060Z,8.9
2017-10-16T04:55:42.187Z,8.9
2017-10-16T04:56:49.642Z,8.9
2017-10-16T04:57:56.958Z,9
2017-10-16T04:59:04.421Z,9
2017-10-16T05:00:11.877Z,9
2017-10-16T05:01:19.347Z,9
2017-10-16T05:02:26.800Z,9
2017-10-16T05:03:34.262Z,9
2017-10-16T05:04:41.718Z,9
2017-10-16T05:05:48.835Z,9.1
2017-10-16T05:06:56.311Z,9.1
2017-10-16T05:08:03.772Z,9.1
2017-10-16T05:09:11.277Z,9.1
2017-10-16T05:10:18.397Z,9.1
2017-10-16T05:11:25.855Z,9.1
2017-10-16T05:12:33.318Z,9.1
2017-10-16T05:13:40.439Z,9.1
2017-10-16T05:14:47.912Z,9.1
2017-10-16T05:15:55.374Z,9.1
2017-10-16T05:17:02.847Z,9.1
2017-10-16T05:18:09.950Z,9.2
2017-10-16T05:19:17.409Z,9.2
2017-10-16T05:20:24.878Z,9.2
2017-10-16T05:21:32.340Z,9.2
2017-10-16T05:22:39.799Z,9.2
2017-10-16T05:23:46.914Z,9.2
2017-10-16T05:24:54.376Z,9.2
2017-10-16T05:26:01.836Z,9.2
2017-10-16T05:27:08.968Z,9.2
2017-10-16T05:28:16.427Z,9.3
2017-10-16T05:29:23.888Z,9.3
2017-10-16T05:30:31.349Z,9.3
2017-10-16T05:31:38.460Z,9.3
2017-10-16T05:32:45.920Z,9.4
2017-10-16T05:33:53.395Z,9.3
2017-10-16T05:35:00.870Z,9.3
2017-10-16T05:36:08.331Z,9.4
2017-10-16T05:37:15.789Z,9.3
2017-10-16T05:38:23.248Z,9.4
2017-10-16T05:39:30.366Z,9.4
2017-10-16T05:40:37.826Z,9.4
2017-10-16T05:41:45.286Z,9.4
2017-10-16T05:42:52.746Z,9.4
2017-10-16T05:44:00.201Z,9.4
2017-10-16T05:45:07.657Z,9.4
2017-10-16T05:46:15.113Z,9.5
2017-10-16T05:47:22.573Z,9.5
2017-10-16T05:48:30.033Z,9.5
2017-10-16T05:49:37.502Z,9.5
2017-10-16T05:50:45.264Z,9.5
2017-10-16T05:51:52.724Z,9.6
2017-10-16T05:53:00.187Z,9.6
2017-10-16T05:54:07.642Z,9.6
2017-10-16T05:55:14.764Z,9.6
2017-10-16T05:56:22.222Z,9.6
2017-10-16T05:57:29.681Z,9.6
2017-10-16T05:58:36.800Z,9.7
2017-10-16T05:59:44.263Z,9.7
2017-10-16T06:00:51.380Z,9.7
2017-10-16T06:01:58.836Z,9.7
2017-10-16T06:03:05.960Z,9.7
2017-10-16T06:04:13.421Z,9.7
2017-10-16T06:05:20.880Z,9.8
2017-10-16T06:06:28.345Z,9.8
2017-10-16T06:07:35.803Z,9.8
2017-10-16T06:08:43.262Z,9.8
2017-10-16T06:09:50.724Z,9.9
2017-10-16T06:10:58.181Z,9.9
2017-10-16T06:12:05.646Z,9.9
2017-10-16T06:13:13.115Z,9.9
2017-10-16T06:14:20.573Z,9.9
2017-10-16T06:15:27.688Z,9.9
2017-10-16T06:16:35.149Z,9.9
2017-10-16T06:17:42.607Z,9.9
2017-10-16T06:18:50.072Z,10
2017-10-16T06:19:57.535Z,10
2017-10-16T06:21:04.997Z,10
2017-10-16T06:22:12.456Z,10
2017-10-16T06:23:19.918Z,10
2017-10-16T06:24:42.267Z,10.1
2017-10-16T06:25:49.736Z,10.1
2017-10-16T06:26:57.196Z,10.1
2017-10-16T06:28:04.656Z,10.1
2017-10-16T06:29:12.124Z,10.1
2017-10-16T06:30:19.334Z,10.1
2017-10-16T06:31:26.795Z,10.1
2017-10-16T06:32:34.259Z,10.1
2017-10-16T06:33:41.718Z,10.1
2017-10-16T06:34:49.179Z,10.2
2017-10-16T06:35:56.642Z,10.2
2017-10-16T06:37:03.763Z,10.3
2017-10-16T06:38:11.232Z,10.3
2017-10-16T06:39:18.336Z,10.3
2017-10-16T06:40:25.451Z,10.3
2017-10-16T06:41:32.913Z,10.3
2017-10-16T06:42:40.369Z,10.4
2017-10-16T06:43:47.488Z,10.4
2017-10-16T06:44:54.947Z,10.4
2017-10-16T06:46:02.417Z,10.5
2017-10-16T06:47:09.880Z,10.5
2017-10-16T06:48:17.342Z,10.6
2017-10-16T06:49:24.469Z,10.6
2017-10-16T06:50:31.931Z,10.6
2017-10-16T06:51:39.391Z,10.6
2017-10-16T06:52:46.508Z,10.6
2017-10-16T06:53:53.971Z,10.6
2017-10-16T06:55:01.431Z,10.7
2017-10-16T06:56:08.890Z,10.7
2017-10-16T06:57:16.352Z,10.7
2017-10-16T06:58:23.815Z,10.7
2017-10-16T06:59:31.271Z,10.7
2017-10-16T07:00:38.391Z,10.7
2017-10-16T07:01:45.857Z,10.8
2017-10-16T07:02:53.312Z,10.8
2017-10-16T07:04:00.777Z,10.8
2017-10-16T07:05:08.234Z,10.9
2017-10-16T07:06:15.697Z,11
2017-10-16T07:07:23.160Z,11
2017-10-16T07:08:30.278Z,11
2017-10-16T07:09:37.839Z,11.1
2017-10-16T07:10:45.298Z,11.1
2017-10-16T07:11:52.785Z,11.1
2017-10-16T07:13:00.246Z,11.1
2017-10-16T07:14:07.708Z,11.2
2017-10-16T07:15:15.418Z,11.2
2017-10-16T07:16:22.882Z,11.2
2017-10-16T07:17:30.345Z,11.2
2017-10-16T07:18:37.469Z,11.3
2017-10-16T07:19:44.924Z,11.3
2017-10-16T07:20:52.040Z,11.3
2017-10-16T07:21:59.157Z,11.3
2017-10-16T07:23:06.619Z,11.3
2017-10-16T07:24:14.080Z,11.4
2017-10-16T07:25:21.542Z,11.4
2017-10-16T07:26:29.003Z,11.4
2017-10-16T07:27:36.464Z,11.4
2017-10-16T07:28:43.929Z,11.4
2017-10-16T07:29:51.393Z,11.5
2017-10-16T07:30:58.851Z,11.5
2017-10-16T07:32:06.310Z,11.5
2017-10-16T07:33:13.769Z,11.5
2017-10-16T07:34:21.233Z,11.6
2017-10-16T07:35:28.692Z,11.7
2017-10-16T07:36:36.151Z,11.7
2017-10-16T07:37:43.620Z,11.8
2017-10-16T07:38:51.080Z,11.7
2017-10-16T07:39:58.201Z,11.7
2017-10-16T07:41:05.349Z,11.7
2017-10-16T07:42:12.797Z,11.7
2017-10-16T07:43:19.915Z,11.7
2017-10-16T07:44:27.379Z,11.7
2017-10-16T07:45:34.493Z,11.7
2017-10-16T07:46:41.957Z,11.6
2017-10-16T07:47:49.418Z,11.6
2017-10-16T07:48:56.880Z,11.6
2017-10-16T07:50:04.001Z,11.6
2017-10-16T07:51:11.464Z,11.7
2017-10-16T07:52:18.923Z,11.8
2017-10-16T07:53:26.391Z,11.9
2017-10-16T07:54:33.851Z,11.8
2017-10-16T07:55:41.350Z,11.9
2017-10-16T07:56:48.809Z,11.9
2017-10-16T07:57:56.270Z,12
2017-10-16T07:59:03.383Z,12
2017-10-16T08:00:10.844Z,12.1
2017-10-16T08:01:18.322Z,12.2
2017-10-16T08:02:25.782Z,12.2
2017-10-16T08:03:32.897Z,12.3
2017-10-16T08:04:40.015Z,12.4
2017-10-16T08:05:47.476Z,12.5
2017-10-16T08:06:54.943Z,12.5
2017-10-16T08:08:02.403Z,12.6
2017-10-16T08:09:09.871Z,12.7
2017-10-16T08:10:17.325Z,12.7
2017-10-16T08:11:24.793Z,12.7
2017-10-16T08:12:32.254Z,12.7
2017-10-16T08:13:39.370Z,12.7
2017-10-16T08:14:46.828Z,12.7
2017-10-16T08:15:53.946Z,12.7
2017-10-16T08:17:01.411Z,12.6
2017-10-16T08:18:08.870Z,12.7
2017-10-16T08:19:16.332Z,12.8
2017-10-16T08:20:23.799Z,12.9
2017-10-16T08:21:31.257Z,12.9
2017-10-16T08:22:38.739Z,12.9
2017-10-16T08:23:46.198Z,12.9
2017-10-16T08:24:53.660Z,12.9
2017-10-16T08:26:01.120Z,12.9
2017-10-16T08:27:08.581Z,13
2017-10-16T08:28:16.051Z,12.9
2017-10-16T08:29:23.513Z,12.9
2017-10-16T08:30:30.974Z,12.9
2017-10-16T08:31:38.436Z,13
2017-10-16T08:32:45.897Z,13
2017-10-16T08:33:53.358Z,13.1
2017-10-16T08:35:00.819Z,13.2
2017-10-16T08:36:08.278Z,13.2
2017-10-16T08:37:15.395Z,13.2
2017-10-16T08:38:22.515Z,13.2
2017-10-16T08:39:29.976Z,13.1
2017-10-16T08:40:37.436Z,13.1
2017-10-16T08:41:44.919Z,13.2
2017-10-16T08:42:52.379Z,13.3
2017-10-16T08:43:59.861Z,13.3
2017-10-16T08:45:07.320Z,13.2
2017-10-16T08:46:14.437Z,13.2
2017-10-16T08:47:21.901Z,13.2
2017-10-16T08:48:29.364Z,13.2
2017-10-16T08:49:36.832Z,13.2
2017-10-16T08:50:44.289Z,13.3
2017-10-16T08:51:51.748Z,13.4
2017-10-16T08:52:59.210Z,13.4
2017-10-16T08:54:06.671Z,13.5
2017-10-16T08:55:14.132Z,13.5
2017-10-16T08:56:21.592Z,13.6
2017-10-16T08:57:29.067Z,13.6
2017-10-16T08:58:36.202Z,13.6
2017-10-16T08:59:43.662Z,13.7
2017-10-16T09:00:51.124Z,13.8
2017-10-16T09:01:58.586Z,14
2017-10-16T09:03:06.053Z,14.1
2017-10-16T09:04:13.169Z,14.1
2017-10-16T09:05:20.631Z,14.2
2017-10-16T09:06:28.090Z,14.2
2017-10-16T09:07:35.562Z,14.3
2017-10-16T09:08:43.015Z,14.4
2017-10-16T09:09:50.133Z,14.5
2017-10-16T09:10:57.596Z,14.5
2017-10-16T09:12:04.719Z,14.5
2017-10-16T09:13:12.448Z,14.5
2017-10-16T09:14:19.924Z,14.5
2017-10-16T09:15:27.388Z,14.5
2017-10-16T09:16:34.511Z,14.5
2017-10-16T09:17:41.976Z,14.5
2017-10-16T09:18:49.437Z,14.5
2017-10-16T09:19:56.921Z,14.5
2017-10-16T09:21:04.386Z,14.6
2017-10-16T09:22:11.860Z,14.6
2017-10-16T09:23:19.330Z,14.6
2017-10-16T09:24:26.799Z,14.6
2017-10-16T09:25:34.261Z,14.7
2017-10-16T09:26:41.742Z,14.9
2017-10-16T09:27:49.209Z,15.1
2017-10-16T09:28:56.672Z,15.3
2017-10-16T09:30:04.135Z,15.5
2017-10-16T09:31:11.599Z,15.7
2017-10-16T09:32:19.062Z,16
2017-10-16T09:33:26.523Z,16.1
2017-10-16T09:34:34.007Z,16
2017-10-16T09:35:41.464Z,16
2017-10-16T09:36:48.928Z,15.9
2017-10-16T09:37:56.397Z,15.9
2017-10-16T09:39:03.852Z,15.8
2017-10-16T09:40:10.977Z,15.8
2017-10-16T09:41:18.439Z,15.8
2017-10-16T09:42:25.905Z,15.8
2017-10-16T09:43:33.367Z,15.6
2017-10-16T09:44:40.826Z,15.5
2017-10-16T09:45:48.300Z,15.6
2017-10-16T09:46:55.761Z,15.7
2017-10-16T09:48:03.224Z,15.8
2017-10-16T09:49:10.688Z,15.9
2017-10-16T09:50:18.152Z,16
2017-10-16T09:51:25.617Z,16.1
2017-10-16T09:52:33.079Z,16.1
2017-10-16T09:53:40.542Z,16
2017-10-16T09:54:48.004Z,16
2017-10-16T09:55:55.468Z,16.1
2017-10-16T09:57:02.930Z,16.3
2017-10-16T09:58:10.395Z,16.6
2017-10-16T09:59:17.864Z,16.7
2017-10-16T10:00:25.325Z,16.8
2017-10-16T10:01:32.785Z,16.9
2017-10-16T10:02:40.249Z,16.9
2017-10-16T10:03:47.362Z,16.7
2017-10-16T10:04:54.484Z,16.7
2017-10-16T10:06:01.943Z,16.8
2017-10-16T10:07:09.405Z,17
2017-10-16T10:08:16.869Z,16.9
2017-10-16T10:09:24.331Z,16.8
2017-10-16T10:10:31.796Z,16.8
2017-10-16T10:11:38.915Z,16.7
2017-10-16T10:12:46.376Z,16.7
2017-10-16T10:13:53.841Z,16.9
2017-10-16T10:15:01.303Z,17.1
2017-10-16T10:16:08.765Z,17.1
2017-10-16T10:17:15.889Z,17.1
2017-10-16T10:18:23.352Z,17.4
2017-10-16T10:19:30.480Z,17.6
2017-10-16T10:20:37.602Z,17.9
2017-10-16T10:21:45.068Z,18
2017-10-16T10:22:52.537Z,18.3
2017-10-16T10:23:59.995Z,18.4
2017-10-16T10:25:07.475Z,18.5
2017-10-16T10:26:14.940Z,18.5
2017-10-16T10:27:22.404Z,18.5
2017-10-16T10:28:29.865Z,18.6
2017-10-16T10:29:37.330Z,18.6
2017-10-16T10:30:44.793Z,18.4
2017-10-16T10:31:52.257Z,18.2
2017-10-16T10:32:59.746Z,18
2017-10-16T10:34:07.209Z,18.1
2017-10-16T10:35:14.331Z,18.2
2017-10-16T10:36:21.802Z,18.2
2017-10-16T10:37:29.266Z,18.1
2017-10-16T10:38:36.736Z,18.1
2017-10-16T10:39:44.201Z,18.3
2017-10-16T10:40:51.674Z,18.2
2017-10-16T10:41:59.143Z,17.9
2017-10-16T10:43:06.861Z,18
2017-10-16T10:44:14.328Z,18.3
2017-10-16T10:45:21.804Z,18.5
2017-10-16T10:46:29.270Z,18.3
2017-10-16T10:47:36.391Z,18
2017-10-16T10:48:43.854Z,18.1
2017-10-16T10:49:50.972Z,18.4
2017-10-16T10:50:58.440Z,18.5
2017-10-16T10:52:05.908Z,18.7
2017-10-16T10:53:13.027Z,18.7
2017-10-16T10:54:20.496Z,18.9
2017-10-16T10:55:27.963Z,18.9
2017-10-16T10:56:35.088Z,19.1
2017-10-16T10:57:42.214Z,19
2017-10-16T10:58:49.681Z,19.2
2017-10-16T10:59:57.148Z,19.4
2017-10-16T11:01:04.618Z,19.5
2017-10-16T11:02:12.079Z,19.6
2017-10-16T11:03:19.207Z,19.7
2017-10-16T11:04:26.675Z,19.8
2017-10-16T11:05:33.798Z,19.8
2017-10-16T11:06:40.921Z,19.8
2017-10-16T11:07:48.390Z,20
2017-10-16T11:08:55.854Z,20.2
2017-10-16T11:10:03.324Z,20.2
2017-10-16T11:11:10.444Z,20.2
2017-10-16T11:12:17.912Z,20.3
2017-10-16T11:13:25.381Z,20.3
2017-10-16T11:14:32.848Z,20.2
2017-10-16T11:15:40.316Z,20.3
2017-10-16T11:16:47.784Z,20.3
2017-10-16T11:17:55.253Z,20.4
2017-10-16T11:19:02.739Z,20.4
2017-10-16T11:20:10.204Z,20.4
2017-10-16T11:21:17.672Z,20.2
2017-10-16T11:22:25.141Z,20.3
2017-10-16T11:23:32.613Z,20.2
2017-10-16T11:24:40.081Z,20.2
2017-10-16T11:25:47.551Z,20.3
2017-10-16T11:26:55.019Z,20.3
2017-10-16T11:28:02.165Z,20.4
2017-10-16T11:29:09.292Z,20.3
2017-10-16T11:30:16.757Z,20.3
2017-10-16T11:31:23.879Z,20.3
2017-10-16T11:32:31.349Z,20.3
2017-10-16T11:33:38.817Z,20.5
2017-10-16T11:34:46.282Z,20.3
2017-10-16T11:35:53.751Z,20.3
2017-10-16T11:37:01.218Z,20.3
2017-10-16T11:38:08.688Z,20.4
2017-10-16T11:39:16.153Z,20.5
2017-10-16T11:40:23.624Z,20.6
2017-10-16T11:41:31.089Z,20.8
2017-10-16T11:42:38.559Z,21
2017-10-16T11:43:46.031Z,21.1
2017-10-16T11:44:53.507Z,21.2
2017-10-16T11:46:00.976Z,21.3
2017-10-16T11:47:08.102Z,21.3
2017-10-16T11:48:15.572Z,21.5
2017-10-16T11:49:23.043Z,21.6
2017-10-16T11:50:30.510Z,21.6
2017-10-16T11:51:37.980Z,21.7
2017-10-16T11:52:45.451Z,21.8
2017-10-16T11:53:52.921Z,21.9
2017-10-16T11:55:00.387Z,21.8
2017-10-16T11:56:07.957Z,21.9
2017-10-16T11:57:15.425Z,21.9
2017-10-16T11:58:22.890Z,21.9
2017-10-16T11:59:30.374Z,22
2017-10-16T12:00:37.843Z,21.8
2017-10-16T12:01:45.313Z,21.7
2017-10-16T12:02:52.445Z,21.6
2017-10-16T12:03:59.578Z,21.6
2017-10-16T12:05:07.043Z,21.8
2017-10-16T12:06:14.171Z,21.7
2017-10-16T12:07:21.839Z,21.6
2017-10-16T12:08:29.313Z,21.7
2017-10-16T12:09:36.782Z,21.6
2017-10-16T12:10:44.242Z,21.3
2017-10-16T12:11:51.714Z,21.4
2017-10-16T12:12:59.188Z,21.7
2017-10-16T12:14:06.319Z,21.9
2017-10-16T12:15:13.786Z,22.1
2017-10-16T12:16:21.254Z,22.4
2017-10-16T12:17:28.729Z,22.4
2017-10-16T12:18:36.202Z,22.5
2017-10-16T12:19:43.327Z,22.4
2017-10-16T12:20:50.801Z,22.1
2017-10-16T12:21:58.267Z,22
2017-10-16T12:23:05.738Z,22.1
